• Join FlightAware (Why Join?)
  • Login
  • US Flag 
09:03PM EDT


 

Airport Tracker/Info


-or-


 

Live Flight TrackerFlight Track Log ✈ EJA831 ✈ 18-Jul-2013 ✈ KLEB - KTEB

Flight Track Log - Related Links

Times and Time Zones

All times are in EDT time to prevent confusion due to time zone crossing. See the EJA831 flight status page for this flight to view local times or setup timezone preferences in your user account.

Time Position Orientation Groundspeed Altitude Reporting Facility
EDT Latitude Longitude Course Direction KTS MPH feet Rate Location/Type
10:00PM 43.5717 -72.3369 202° Southwest 356 410 4,700  Level Boston Center
10:01PM 43.5342 -72.4086 234° Southwest 325 374 8,400 3,600 Climbing Boston Center
10:02PM 43.4903 -72.4803 230° Southwest 268 308 11,900 3,360 Climbing Boston Center
10:03PM 43.4467 -72.5603 233° Southwest 262 302 15,200 2,880 Climbing Boston Center
10:04PM 43.3352 -72.7662 229° Southwest  Level FlightAware Approximate
10:04PM 43.4006 -72.6458 233° Southwest 276 318 17,700  Level Boston Center
10:05PM 43.3461 -72.7369 231° Southwest 293 337 19,900 1,020 Climbing Boston Center
10:07PM 43.2875 -72.8422 233° Southwest 327 376 20,000  Climbing Boston Center
10:08PM 43.2119 -72.9756 232° Southwest 361 415 20,000  Level Boston Center
10:09PM 43.1489 -73.0833 231° Southwest 368 423 20,000  Level Boston Center
10:10PM 43.0794 -73.2047 232° Southwest 374 430 20,000  Level Boston Center
10:11PM 43.0181 -73.3119 232° Southwest 374 430 20,000 -180 Level Boston Center
10:12PM 42.9525 -73.4217 231° Southwest 374 430 19,700 -960 Descending Boston Center
10:13PM 42.8953 -73.5311 235° Southwest 363 418 18,100 -1,500 Descending Boston Center
10:14PM 42.8422 -73.6236 232° Southwest 356 410 16,700 -960 Descending Boston Center
10:15PM 42.7828 -73.7442 236° Southwest 361 415 16,000 -360 Descending Boston Center
10:16PM 42.6981 -73.8442 221° Southwest 337 388 16,000  Level Boston Center
10:18PM 42.5319 -73.9617 208° Southwest 355 409 16,000  Level Boston Center
10:19PM 42.4331 -74.0322 208° Southwest 363 418 16,000  Level Boston Center
10:20PM 42.3386 -74.0833 202° Southwest 370 426 16,100  Climbing Boston Center
10:21PM 42.2586 -74.1289 203° Southwest 370 426 16,100  Level Boston Center
10:22PM 42.1536 -74.1847 202° Southwest 360 414 16,100  Level Boston Center
10:23PM 42.0694 -74.2328 203° Southwest 360 414 16,100  Level Boston Center
10:24PM 41.9686 -74.2886 202° Southwest 355 409 16,100 -60 Level Boston Center
10:25PM 41.8864 -74.3364 203° Southwest 355 409 16,000 -1,200 Descending Boston Center
10:26PM 41.7875 -74.3864 201° Southwest 355 409 13,700 -2,100 Descending Boston Center
10:27PM 41.7119 -74.4283 203° Southwest 343 395 11,800 -2,100 Descending Boston Center
10:28PM 41.6214 -74.4783 202° Southwest 330 380 9,500 -1,920 Descending Boston Center
10:29PM 41.5539 -74.5150 202° Southwest 306 352 8,000 -1,500 Descending Boston Center
10:30PM 41.4781 -74.5569 203° Southwest 282 325 6,600 -720 Descending Boston Center
10:31PM 41.3500 -74.6167 199° South 272 313 6,100 -240 Descending New York TRACON
10:32PM 41.2833 -74.6167 180° South 282 325 6,100 -360 Level New York TRACON
10:33PM 41.2333 -74.5333 129° Southeast 287 330 5,400 -960 Descending New York TRACON
10:34PM 41.2000 -74.4333 114° Southeast 278 320 4,200 -1,020 Descending New York TRACON
10:35PM 41.1667 -74.3500 118° Southeast 283 326 3,400 -600 Descending New York TRACON
10:36PM 41.1167 -74.2667 129° Southeast 271 312 3,100 -180 Descending New York TRACON
10:37PM 41.0833 -74.1667 114° Southeast 276 318 3,100 -240 Level New York TRACON
10:38PM 41.0500 -74.1000 124° Southeast 241 277 2,700 -540 Descending New York TRACON
10:39PM 41.0000 -74.0500 143° Southeast 217 250 2,100 -540 Descending New York TRACON
10:40PM 40.9500 -74.0500 180° South 185 213 1,700 -660 Descending New York TRACON
10:41PM 40.9000 -74.0500 180° South 159 183 800 -900 Descending New York TRACON
10:43PM 40.8500 -74.0500 143° Southeast  Level FlightAware Approximate